createdAt,value
2022-08-02T00:01:06.293Z,20.20
2022-08-02T00:03:35.559Z,20.20
2022-08-02T00:06:06.264Z,20.10
2022-08-02T00:08:35.055Z,20.10
2022-08-02T00:11:03.806Z,20.10
2022-08-02T00:13:32.686Z,20.00
2022-08-02T00:16:01.531Z,20.00
2022-08-02T00:18:30.344Z,20.00
2022-08-02T00:20:59.102Z,20.00
2022-08-02T00:23:29.242Z,19.90
2022-08-02T00:25:58.253Z,19.90
2022-08-02T00:28:28.375Z,19.90
2022-08-02T00:30:58.700Z,19.80
2022-08-02T00:34:26.164Z,19.80
2022-08-02T00:36:16.402Z,19.80
2022-08-02T00:38:46.655Z,19.70
2022-08-02T00:41:17.695Z,19.70
2022-08-02T00:43:47.175Z,19.60
2022-08-02T00:46:16.496Z,19.60
2022-08-02T00:48:45.641Z,19.60
2022-08-02T00:51:15.868Z,19.50
2022-08-02T00:53:46.051Z,19.50
2022-08-02T00:56:14.834Z,19.50
2022-08-02T00:58:43.681Z,19.40
2022-08-02T01:01:12.461Z,19.40
2022-08-02T01:03:41.321Z,19.40
2022-08-02T01:06:11.673Z,19.40
2022-08-02T01:08:40.808Z,19.30
2022-08-02T01:11:11.011Z,19.30
2022-08-02T01:13:39.777Z,19.30
2022-08-02T01:16:16.357Z,19.20
2022-08-02T01:18:49.200Z,19.20
2022-08-02T01:21:37.247Z,19.20
2022-08-02T01:24:43.383Z,19.20
2022-08-02T01:27:27.367Z,19.10
2022-08-02T01:30:01.725Z,19.10
2022-08-02T01:32:35.514Z,19.10
2022-08-02T01:35:09.044Z,19.10
2022-08-02T01:37:44.442Z,19.10
2022-08-02T01:40:18.027Z,19.00
2022-08-02T01:42:51.261Z,19.00
2022-08-02T01:45:23.364Z,18.90
2022-08-02T01:47:53.080Z,18.90
2022-08-02T01:50:28.762Z,18.80
2022-08-02T01:53:00.214Z,18.80
2022-08-02T01:55:35.093Z,18.80
2022-08-02T01:58:23.730Z,18.70
2022-08-02T02:00:57.876Z,18.70
2022-08-02T02:03:28.483Z,18.70
2022-08-02T02:05:59.126Z,18.60
2022-08-02T02:08:33.693Z,18.60
2022-08-02T02:12:11.895Z,18.60
2022-08-02T02:13:53.394Z,18.60
2022-08-02T02:16:24.139Z,18.50
2022-08-02T02:18:54.778Z,18.50
2022-08-02T02:21:23.677Z,18.50
2022-08-02T02:23:52.624Z,18.50
2022-08-02T02:26:29.373Z,18.40
2022-08-02T02:29:00.682Z,18.40
2022-08-02T02:31:34.037Z,18.40
2022-08-02T02:34:05.621Z,18.30
2022-08-02T02:36:35.614Z,18.30
2022-08-02T02:39:11.629Z,18.30
2022-08-02T02:41:43.824Z,18.30
2022-08-02T02:44:17.706Z,18.20
2022-08-02T02:46:50.942Z,18.20
2022-08-02T02:49:21.742Z,18.20
2022-08-02T02:51:51.456Z,18.20
2022-08-02T02:54:32.101Z,18.10
2022-08-02T02:57:05.818Z,18.10
2022-08-02T02:59:48.896Z,18.10
2022-08-02T03:02:20.379Z,18.10
2022-08-02T03:04:56.507Z,18.10
2022-08-02T03:07:27.785Z,18.00
2022-08-02T03:09:56.733Z,18.00
2022-08-02T03:12:31.811Z,18.00
2022-08-02T03:15:02.522Z,18.00
2022-08-02T03:17:43.495Z,18.00
2022-08-02T03:20:14.599Z,18.00
2022-08-02T03:22:43.624Z,18.00
2022-08-02T03:25:12.888Z,18.00
2022-08-02T03:27:42.681Z,18.00
2022-08-02T03:30:13.233Z,17.90
2022-08-02T03:32:46.395Z,17.90
2022-08-02T03:35:23.090Z,17.90
2022-08-02T03:37:54.924Z,17.90
2022-08-02T03:40:24.694Z,17.90
2022-08-02T03:42:53.863Z,17.90
2022-08-02T03:45:23.066Z,17.90
2022-08-02T03:47:53.853Z,17.90
2022-08-02T03:50:29.125Z,17.90
2022-08-02T03:52:58.538Z,17.90
2022-08-02T03:55:27.289Z,17.90
2022-08-02T03:57:56.297Z,17.90
2022-08-02T04:00:25.502Z,17.90
2022-08-02T04:02:55.816Z,17.90
2022-08-02T04:05:25.097Z,18.00
2022-08-02T04:08:02.435Z,18.00
2022-08-02T04:11:00.050Z,18.00
2022-08-02T04:13:35.736Z,18.10
2022-08-02T04:16:10.780Z,18.10
2022-08-02T04:18:47.624Z,18.20
2022-08-02T04:21:20.854Z,18.30
2022-08-02T04:23:51.907Z,18.30
2022-08-02T04:26:26.924Z,18.40
2022-08-02T04:28:58.798Z,18.50
2022-08-02T04:31:28.291Z,18.70
2022-08-02T04:33:58.949Z,18.80
2022-08-02T04:36:30.795Z,19.00
2022-08-02T04:39:00.643Z,19.10
2022-08-02T04:41:40.915Z,19.30
2022-08-02T04:44:13.002Z,19.40
2022-08-02T04:46:42.470Z,19.60
2022-08-02T04:49:12.808Z,19.80
2022-08-02T04:51:44.406Z,20.00
2022-08-02T04:54:13.469Z,20.20
2022-08-02T04:56:42.595Z,20.40
2022-08-02T04:59:12.639Z,20.60
2022-08-02T05:01:42.634Z,20.90
2022-08-02T05:04:12.877Z,21.20
2022-08-02T05:06:44.721Z,21.60
2022-08-02T05:09:13.829Z,22.00
2022-08-02T05:11:42.492Z,22.40
2022-08-02T05:14:11.223Z,22.70
2022-08-02T05:16:40.011Z,23.10
2022-08-02T05:19:08.674Z,23.60
2022-08-02T05:21:38.885Z,23.90
2022-08-02T05:24:08.765Z,24.30
2022-08-02T05:26:37.482Z,24.70
2022-08-02T05:29:06.283Z,25.10
2022-08-02T05:31:35.009Z,25.50
2022-08-02T05:34:05.753Z,25.80
2022-08-02T05:36:36.311Z,26.10
2022-08-02T05:39:12.505Z,26.50
2022-08-02T05:41:47.980Z,26.80
2022-08-02T05:44:16.713Z,27.30
2022-08-02T05:46:45.538Z,27.60
2022-08-02T05:49:16.648Z,27.90
2022-08-02T05:51:53.548Z,28.20
2022-08-02T05:54:28.991Z,28.50
2022-08-02T05:57:02.748Z,28.70
2022-08-02T05:59:38.871Z,28.80
2022-08-02T06:02:26.285Z,29.10
2022-08-02T06:05:05.503Z,29.30
2022-08-02T06:07:37.997Z,29.60
2022-08-02T06:10:09.779Z,29.80
2022-08-02T06:12:49.619Z,30.10
2022-08-02T06:15:20.920Z,30.40
2022-08-02T06:17:50.638Z,30.50
2022-08-02T06:20:21.625Z,30.60
2022-08-02T06:22:51.005Z,30.80
2022-08-02T06:25:50.997Z,30.90
2022-08-02T06:28:12.036Z,31.00
2022-08-02T06:30:41.854Z,31.20
2022-08-02T06:33:10.829Z,31.40
2022-08-02T06:35:46.866Z,31.60
2022-08-02T06:38:22.517Z,31.70
2022-08-02T06:40:59.885Z,31.80
2022-08-02T06:43:36.709Z,31.90
2022-08-02T06:46:34.053Z,32.00
2022-08-02T06:48:57.809Z,32.00
2022-08-02T06:51:26.720Z,32.20
2022-08-02T06:53:55.929Z,32.40
2022-08-02T06:56:26.177Z,32.50
2022-08-02T06:58:54.938Z,32.60
2022-08-02T07:01:23.937Z,32.70
2022-08-02T07:03:53.568Z,32.70
2022-08-02T07:06:22.953Z,32.90
2022-08-02T07:09:18.299Z,33.10
2022-08-02T07:11:41.957Z,33.30
2022-08-02T07:14:10.704Z,33.50
2022-08-02T07:16:39.764Z,33.80
2022-08-02T07:19:08.605Z,34.10
2022-08-02T07:21:56.365Z,34.30
2022-08-02T07:24:26.141Z,34.60
2022-08-02T07:27:10.684Z,34.90
2022-08-02T07:29:46.491Z,35.20
2022-08-02T07:32:16.592Z,35.50
2022-08-02T07:34:51.028Z,35.90
2022-08-02T07:37:35.797Z,36.10
2022-08-02T07:40:13.977Z,36.40
2022-08-02T07:42:45.912Z,36.70
2022-08-02T07:45:15.943Z,36.90
2022-08-02T07:47:46.062Z,37.10
2022-08-02T07:50:16.594Z,37.30
2022-08-02T07:52:46.290Z,37.50
2022-08-02T07:55:16.449Z,37.50
2022-08-02T07:57:47.421Z,37.50
2022-08-02T08:00:17.839Z,37.70
2022-08-02T08:02:47.514Z,37.80
2022-08-02T08:05:16.581Z,37.90
2022-08-02T08:07:45.324Z,38.00
2022-08-02T08:10:14.094Z,37.90
2022-08-02T08:12:42.841Z,38.10
2022-08-02T08:15:13.428Z,38.20
2022-08-02T08:17:42.164Z,38.00
2022-08-02T08:20:15.650Z,38.30
2022-08-02T08:22:44.702Z,38.60
2022-08-02T08:25:13.562Z,38.30
2022-08-02T08:27:49.706Z,38.50
2022-08-02T08:30:22.452Z,38.80
2022-08-02T08:32:51.523Z,39.00
2022-08-02T08:35:20.348Z,38.90
2022-08-02T08:37:49.570Z,39.20
2022-08-02T08:40:19.903Z,38.00
2022-08-02T08:42:48.872Z,38.50
2022-08-02T08:45:18.262Z,38.90
2022-08-02T08:47:54.051Z,39.00
2022-08-02T08:50:26.196Z,39.20
2022-08-02T08:52:59.379Z,39.40
2022-08-02T08:55:29.099Z,39.50
2022-08-02T08:58:01.171Z,39.50
2022-08-02T09:00:31.955Z,39.50
2022-08-02T09:03:04.984Z,39.40
2022-08-02T09:05:36.363Z,39.10
2022-08-02T09:08:06.572Z,38.60
2022-08-02T09:10:45.467Z,37.90
2022-08-02T09:13:37.956Z,37.50
2022-08-02T09:16:12.273Z,37.20
2022-08-02T09:18:46.378Z,36.90
2022-08-02T09:21:16.877Z,36.70
2022-08-02T09:23:47.442Z,36.60
2022-08-02T09:26:18.918Z,36.70
2022-08-02T09:28:50.226Z,36.80
2022-08-02T09:31:21.986Z,37.00
2022-08-02T09:33:55.683Z,37.20
2022-08-02T09:36:26.842Z,37.40
2022-08-02T09:38:58.166Z,37.70
2022-08-02T09:41:28.548Z,38.00
2022-08-02T09:44:04.302Z,38.20
2022-08-02T09:46:38.563Z,38.50
2022-08-02T09:49:11.667Z,38.80
2022-08-02T09:51:41.977Z,39.10
2022-08-02T09:54:12.261Z,39.30
2022-08-02T09:56:46.725Z,39.30
2022-08-02T09:59:16.621Z,39.20
2022-08-02T10:01:51.614Z,39.20
2022-08-02T10:04:34.051Z,39.30
2022-08-02T10:07:05.836Z,39.50
2022-08-02T10:09:35.930Z,39.70
2022-08-02T10:12:07.125Z,39.80
2022-08-02T10:14:36.358Z,39.80
2022-08-02T10:17:06.419Z,40.00
2022-08-02T10:20:02.373Z,40.20
2022-08-02T10:22:26.658Z,40.30
2022-08-02T10:24:56.392Z,40.40
2022-08-02T10:27:26.402Z,40.30
2022-08-02T10:29:59.142Z,40.30
2022-08-02T10:32:31.428Z,40.30
2022-08-02T10:35:18.917Z,39.90
2022-08-02T10:37:54.740Z,40.10
2022-08-02T10:40:27.571Z,40.20
2022-08-02T10:43:01.007Z,40.50
2022-08-02T10:45:30.697Z,40.70
2022-08-02T10:48:06.221Z,40.90
2022-08-02T10:50:57.327Z,41.20
2022-08-02T10:53:27.977Z,41.30
2022-08-02T10:55:58.857Z,41.30
2022-08-02T10:58:30.404Z,41.20
2022-08-02T11:01:00.340Z,41.20
2022-08-02T11:03:41.014Z,41.20
2022-08-02T11:06:24.972Z,41.20
2022-08-02T11:09:32.454Z,41.20
2022-08-02T11:12:04.590Z,41.20
2022-08-02T11:14:35.426Z,41.40
2022-08-02T11:17:11.999Z,41.60
2022-08-02T11:20:18.993Z,41.80
2022-08-02T11:22:50.756Z,41.80
2022-08-02T11:26:02.089Z,41.50
2022-08-02T11:28:25.780Z,41.50
2022-08-02T11:31:02.661Z,40.90
2022-08-02T11:33:37.127Z,41.20
2022-08-02T11:36:08.423Z,40.90
2022-08-02T11:38:38.613Z,41.10
2022-08-02T11:41:09.980Z,41.10
2022-08-02T11:43:40.251Z,41.00
2022-08-02T11:46:15.621Z,41.20
2022-08-02T11:48:45.418Z,41.30
2022-08-02T11:51:16.047Z,41.50
2022-08-02T11:53:51.471Z,41.40
2022-08-02T11:56:30.339Z,41.50
2022-08-02T11:59:06.558Z,41.80
2022-08-02T12:01:45.692Z,41.80
2022-08-02T12:04:22.854Z,41.90
2022-08-02T12:06:57.063Z,41.90
2022-08-02T12:09:28.867Z,41.80
2022-08-02T12:11:58.628Z,41.80
2022-08-02T12:14:29.296Z,41.90
2022-08-02T12:17:15.856Z,41.70
2022-08-02T12:19:45.286Z,41.90
2022-08-02T12:22:17.894Z,42.00
2022-08-02T12:24:49.925Z,42.30
2022-08-02T12:27:36.514Z,42.60
2022-08-02T12:30:08.864Z,42.80
2022-08-02T12:32:38.788Z,43.00
2022-08-02T12:35:10.891Z,42.90
2022-08-02T12:37:41.768Z,43.00
2022-08-02T12:40:25.473Z,42.80
2022-08-02T12:42:57.452Z,42.90
2022-08-02T12:45:26.993Z,43.00
2022-08-02T12:48:08.188Z,42.80
2022-08-02T12:50:38.109Z,42.90
2022-08-02T12:53:09.069Z,43.10
2022-08-02T12:56:02.358Z,43.20
2022-08-02T12:58:32.846Z,43.40
2022-08-02T13:01:02.867Z,43.40
2022-08-02T13:04:09.316Z,43.40
2022-08-02T13:09:17.925Z,43.70
2022-08-02T13:11:48.217Z,44.00
2022-08-02T13:14:17.322Z,44.10
2022-08-02T13:16:47.756Z,44.00
2022-08-02T13:19:16.855Z,44.00
2022-08-02T13:22:02.065Z,44.00
2022-08-02T13:24:39.875Z,43.90
2022-08-02T13:27:23.467Z,43.60
2022-08-02T13:29:53.625Z,43.20
2022-08-02T13:32:23.106Z,43.20
2022-08-02T13:34:52.162Z,43.30
2022-08-02T13:37:21.128Z,43.50
2022-08-02T13:40:11.718Z,43.50
2022-08-02T13:42:40.503Z,43.50
2022-08-02T13:45:12.495Z,43.40
2022-08-02T13:48:04.428Z,43.30
2022-08-02T13:50:31.690Z,43.20
2022-08-02T13:53:00.432Z,42.90
2022-08-02T13:55:29.381Z,42.40
2022-08-02T13:58:00.066Z,42.40
2022-08-02T14:00:34.642Z,42.20
2022-08-02T14:03:07.131Z,41.90
2022-08-02T14:05:48.493Z,41.40
2022-08-02T14:08:19.330Z,40.90
2022-08-02T14:10:48.715Z,40.30
2022-08-02T14:13:19.132Z,39.70
2022-08-02T14:15:48.218Z,39.00
2022-08-02T14:18:17.155Z,38.30
2022-08-02T14:20:46.404Z,37.70
2022-08-02T14:23:15.898Z,37.10
2022-08-02T14:25:44.687Z,36.50
2022-08-02T14:28:13.442Z,36.10
2022-08-02T14:30:43.718Z,35.50
2022-08-02T14:33:12.528Z,35.10
2022-08-02T14:35:41.452Z,34.70
2022-08-02T14:38:10.161Z,34.40
2022-08-02T14:40:39.033Z,34.00
2022-08-02T14:43:08.285Z,33.70
2022-08-02T14:45:40.904Z,33.50
2022-08-02T14:48:13.413Z,33.30
2022-08-02T14:50:42.110Z,33.10
2022-08-02T14:53:12.445Z,32.90
2022-08-02T14:55:43.286Z,32.70
2022-08-02T14:58:12.330Z,32.60
2022-08-02T15:00:43.826Z,32.50
2022-08-02T15:03:14.902Z,32.30
2022-08-02T15:05:43.581Z,32.20
2022-08-02T15:08:12.241Z,32.10
2022-08-02T15:10:46.883Z,32.10
2022-08-02T15:13:15.617Z,32.00
2022-08-02T15:15:44.392Z,31.90
2022-08-02T15:18:15.524Z,31.80
2022-08-02T15:20:57.480Z,31.80
2022-08-02T15:23:37.786Z,31.70
2022-08-02T15:26:08.219Z,31.60
2022-08-02T15:28:38.752Z,31.50
2022-08-02T15:31:07.466Z,31.40
2022-08-02T15:33:37.629Z,31.40
2022-08-02T15:36:07.033Z,31.40
2022-08-02T15:38:36.263Z,31.30
2022-08-02T15:41:05.725Z,31.20
2022-08-02T15:44:00.361Z,31.20
2022-08-02T15:46:32.247Z,31.20
2022-08-02T15:49:02.759Z,31.10
2022-08-02T15:51:31.536Z,31.10
2022-08-02T15:54:00.293Z,31.10
2022-08-02T15:56:29.074Z,31.10
2022-08-02T15:58:58.948Z,31.00
2022-08-02T16:01:37.063Z,30.90
2022-08-02T16:04:09.423Z,30.90
2022-08-02T16:06:38.420Z,30.90
2022-08-02T16:09:07.225Z,30.80
2022-08-02T16:11:35.957Z,30.80
2022-08-02T16:14:04.838Z,30.80
2022-08-02T16:16:35.575Z,30.70
2022-08-02T16:19:46.728Z,30.60
2022-08-02T16:21:56.539Z,30.50
2022-08-02T16:24:26.566Z,30.50
2022-08-02T16:26:55.340Z,30.40
2022-08-02T16:29:24.216Z,30.40
2022-08-02T16:31:53.061Z,30.30
2022-08-02T16:34:21.779Z,30.30
2022-08-02T16:36:50.466Z,30.20
2022-08-02T16:39:20.701Z,30.20
2022-08-02T16:44:38.225Z,30.00
2022-08-02T16:47:07.148Z,30.00
2022-08-02T16:50:05.675Z,29.90
2022-08-02T16:52:24.619Z,29.80
2022-08-02T16:54:54.854Z,29.70
2022-08-02T16:57:23.585Z,29.70
2022-08-02T17:00:12.692Z,29.60
2022-08-02T17:02:41.483Z,29.60
2022-08-02T17:05:14.150Z,29.50
2022-08-02T17:08:08.396Z,29.40
2022-08-02T17:10:34.912Z,29.40
2022-08-02T17:13:11.186Z,29.30
2022-08-02T17:16:07.747Z,29.30
2022-08-02T17:18:30.866Z,29.20
2022-08-02T17:21:01.636Z,29.10
2022-08-02T17:24:03.872Z,29.00
2022-08-02T17:26:20.861Z,28.90
2022-08-02T17:31:42.848Z,28.80
2022-08-02T17:34:13.685Z,28.70
2022-08-02T17:36:49.766Z,28.60
2022-08-02T17:39:18.808Z,28.60
2022-08-02T17:41:50.834Z,28.50
2022-08-02T17:44:37.697Z,28.40
2022-08-02T17:47:11.432Z,28.30
2022-08-02T17:49:44.225Z,28.20
2022-08-02T17:52:51.812Z,28.10
2022-08-02T17:55:06.741Z,28.00
2022-08-02T17:57:55.709Z,27.90
2022-08-02T18:00:26.954Z,27.80
2022-08-02T18:02:55.917Z,27.70
2022-08-02T18:05:40.415Z,27.60
2022-08-02T18:08:15.342Z,27.50
2022-08-02T18:10:47.301Z,27.40
2022-08-02T18:13:17.553Z,27.30
2022-08-02T18:15:46.341Z,27.10
2022-08-02T18:18:17.091Z,27.00
2022-08-02T18:20:48.101Z,26.90
2022-08-02T18:23:18.781Z,26.70
2022-08-02T18:25:53.153Z,26.70
2022-08-02T18:28:26.677Z,26.50
2022-08-02T18:30:55.850Z,26.40
2022-08-02T18:33:57.500Z,26.30
2022-08-02T18:36:24.986Z,26.20
2022-08-02T18:38:54.086Z,26.00
2022-08-02T18:41:23.003Z,25.80
2022-08-02T18:43:54.936Z,25.70
2022-08-02T18:46:24.163Z,25.60
2022-08-02T18:49:06.837Z,25.50
2022-08-02T18:51:44.848Z,25.40
2022-08-02T18:54:13.659Z,25.30
2022-08-02T18:56:47.466Z,25.30
2022-08-02T18:59:18.198Z,25.10
2022-08-02T19:01:50.339Z,25.00
2022-08-02T19:04:27.566Z,24.90
2022-08-02T19:07:07.928Z,24.80
2022-08-02T19:09:40.038Z,24.70
2022-08-02T19:12:11.756Z,24.60
2022-08-02T19:14:42.324Z,24.50
2022-08-02T19:20:00.084Z,24.40
2022-08-02T19:22:29.111Z,24.30
2022-08-02T19:27:47.979Z,24.10
2022-08-02T19:30:21.288Z,24.00
2022-08-02T19:32:59.237Z,24.00
2022-08-02T19:35:34.171Z,23.90
2022-08-02T19:40:59.884Z,23.80
2022-08-02T19:44:25.926Z,23.70
2022-08-02T19:46:20.873Z,23.60
2022-08-02T19:48:51.043Z,23.50
2022-08-02T19:51:49.288Z,23.50
2022-08-02T19:54:10.927Z,23.40
2022-08-02T19:56:41.402Z,23.30
2022-08-02T19:59:12.967Z,23.20
2022-08-02T20:01:48.789Z,23.10
2022-08-02T20:04:23.127Z,23.00
2022-08-02T20:06:52.943Z,23.00
2022-08-02T20:09:33.192Z,22.90
2022-08-02T20:12:12.871Z,22.80
2022-08-02T20:14:41.930Z,22.80
2022-08-02T20:17:21.828Z,22.70
2022-08-02T20:19:50.676Z,22.60
2022-08-02T20:22:21.264Z,22.50
2022-08-02T20:24:49.964Z,22.50
2022-08-02T20:27:23.917Z,22.40
2022-08-02T20:29:54.691Z,22.30
2022-08-02T20:32:25.603Z,22.30
2022-08-02T20:34:54.342Z,22.30
2022-08-02T20:37:59.619Z,22.20
2022-08-02T20:40:17.263Z,22.20
2022-08-02T20:42:48.524Z,22.20
2022-08-02T20:45:17.777Z,22.10
2022-08-02T20:47:51.061Z,22.10
2022-08-02T20:50:38.745Z,22.10
2022-08-02T20:53:08.966Z,22.10
2022-08-02T20:55:54.272Z,22.00
2022-08-02T20:58:26.452Z,22.00
2022-08-02T21:00:59.518Z,21.90
2022-08-02T21:03:38.961Z,21.80
2022-08-02T21:06:09.208Z,21.80
2022-08-02T21:08:38.182Z,21.70
2022-08-02T21:11:09.464Z,21.70
2022-08-02T21:13:46.799Z,21.60
2022-08-02T21:16:30.460Z,21.50
2022-08-02T21:19:00.923Z,21.50
2022-08-02T21:21:30.081Z,21.40
2022-08-02T21:23:59.935Z,21.30
2022-08-02T21:26:30.765Z,21.30
2022-08-02T21:29:03.776Z,21.20
2022-08-02T21:31:36.454Z,21.20
2022-08-02T21:34:21.512Z,21.20
2022-08-02T21:36:56.195Z,21.20
2022-08-02T21:39:25.235Z,21.10
2022-08-02T21:41:54.684Z,21.20
2022-08-02T21:44:23.922Z,21.10
2022-08-02T21:46:54.964Z,21.10
2022-08-02T21:49:27.090Z,21.10
2022-08-02T21:51:56.525Z,21.10
2022-08-02T21:54:25.376Z,21.00
2022-08-02T21:56:55.100Z,21.00
2022-08-02T21:59:26.716Z,20.90
2022-08-02T22:01:57.383Z,20.90
2022-08-02T22:04:28.363Z,20.90
2022-08-02T22:06:58.727Z,20.90
2022-08-02T22:09:43.727Z,20.80
2022-08-02T22:12:17.917Z,20.80
2022-08-02T22:14:55.024Z,20.80
2022-08-02T22:17:52.141Z,20.80
2022-08-02T22:20:20.011Z,20.70
2022-08-02T22:22:50.220Z,20.70
2022-08-02T22:25:26.465Z,20.60
2022-08-02T22:28:36.586Z,20.60
2022-08-02T22:30:56.846Z,20.60
2022-08-02T22:33:59.848Z,20.60
2022-08-02T22:36:32.796Z,20.60
2022-08-02T22:39:02.383Z,20.60
2022-08-02T22:41:41.773Z,20.60
2022-08-02T22:44:20.469Z,20.60
2022-08-02T22:46:50.137Z,20.60
2022-08-02T22:49:38.173Z,20.50
2022-08-02T22:54:58.512Z,20.50
2022-08-02T22:57:30.276Z,20.50
2022-08-02T22:58:41.943Z,30.10
2022-08-02T22:58:57.123Z,24.40
2022-08-02T22:58:58.899Z,24.20
2022-08-02T22:59:05.291Z,23.80
2022-08-02T23:00:00.952Z,20.50
2022-08-02T23:02:30.017Z,20.50
2022-08-02T23:04:59.287Z,20.50
2022-08-02T23:07:52.464Z,20.50
2022-08-02T23:10:21.243Z,20.40
2022-08-02T23:12:50.072Z,20.40
2022-08-02T23:15:18.845Z,20.40
2022-08-02T23:18:05.093Z,20.40
2022-08-02T23:20:34.114Z,20.40
2022-08-02T23:23:04.301Z,20.40
2022-08-02T23:25:40.709Z,20.40
2022-08-02T23:28:09.360Z,20.30
2022-08-02T23:30:38.725Z,20.40
2022-08-02T23:33:07.587Z,20.40
2022-08-02T23:35:36.302Z,20.30
2022-08-02T23:38:06.447Z,20.30
2022-08-02T23:40:40.642Z,20.30
2022-08-02T23:43:14.988Z,20.30
2022-08-02T23:45:46.470Z,20.30
2022-08-02T23:48:15.541Z,20.30
2022-08-02T23:50:44.200Z,20.30
2022-08-02T23:53:14.363Z,20.30
2022-08-02T23:55:43.109Z,20.30
2022-08-02T23:58:12.973Z,20.30
